Time;durP1;ratioP1;P1;durP2;ratioP2;P2;SDS_P1;SDS_P2;PMS_P1;PMS_P2;Temp;Humidity;BMP_temperature;BMP_pressure;BME280_temperature;BME280_humidity;BME280_pressure;Samples;Min_cycle;Max_cycle;Signal;HPM_P1;HPM_P2
2022/06/29 00:00:19;;;;;;;8.67;4.70;;;;;;;16.64;70.71;101473.44;4931064;29;20423;-82
2022/06/29 00:02:45;;;;;;;8.83;4.40;;;;;;;16.71;70.24;101482.41;4930906;29;20090;-82
2022/06/29 00:05:17;;;;;;;6.83;4.70;;;;;;;16.68;70.24;101480.13;4913074;29;20098;-83
2022/06/29 00:07:43;;;;;;;7.37;4.80;;;;;;;16.66;70.17;101482.28;4930590;29;20042;-80
2022/06/29 00:10:10;;;;;;;8.80;4.90;;;;;;;16.64;70.42;101476.19;4914198;29;20043;-81
2022/06/29 00:12:36;;;;;;;6.57;4.70;;;;;;;16.62;70.12;101477.50;4930953;29;20039;-81
2022/06/29 00:15:05;;;;;;;6.53;4.53;;;;;;;16.60;70.33;101480.47;4930782;29;20034;-81
2022/06/29 00:17:31;;;;;;;7.47;4.77;;;;;;;16.58;70.44;101479.88;4931219;29;20074;-81
2022/06/29 00:19:57;;;;;;;6.90;5.20;;;;;;;16.58;70.35;101479.88;4931544;29;20036;-80
2022/06/29 00:22:23;;;;;;;8.50;4.87;;;;;;;16.52;71.04;101476.19;4901169;29;20040;-82
2022/06/29 00:24:49;;;;;;;9.93;5.13;;;;;;;16.49;70.90;101481.31;4930995;29;20042;-81
2022/06/29 00:27:14;;;;;;;6.97;5.00;;;;;;;16.43;71.25;101474.88;4931162;29;20113;-82
2022/06/29 00:29:40;;;;;;;6.10;5.00;;;;;;;16.41;71.41;101467.97;4913351;29;20046;-82
2022/06/29 00:32:06;;;;;;;8.70;5.37;;;;;;;16.39;71.27;101468.22;4934507;29;20159;-82
2022/06/29 00:34:31;;;;;;;7.33;5.43;;;;;;;16.35;71.21;101459.63;4931034;29;20365;-82
2022/06/29 00:36:57;;;;;;;9.20;5.07;;;;;;;16.33;71.55;101461.78;4930727;29;20109;-83
2022/06/29 00:39:22;;;;;;;10.47;5.40;;;;;;;16.30;71.50;101456.75;4930845;28;20047;-81
2022/06/29 00:41:48;;;;;;;9.80;5.57;;;;;;;16.25;71.89;101455.81;4934817;29;20098;-82
2022/06/29 00:44:15;;;;;;;8.30;5.53;;;;;;;16.25;71.93;101461.28;4922008;29;20055;-80
2022/06/29 00:46:47;;;;;;;8.30;5.57;;;;;;;16.25;71.63;101453.94;4934926;29;20059;-81
2022/06/29 00:49:15;;;;;;;8.90;5.60;;;;;;;16.20;71.60;101451.06;4934663;29;20042;-81
2022/06/29 00:51:46;;;;;;;7.70;5.73;;;;;;;16.10;71.38;101439.84;4934868;29;20055;-81
2022/06/29 00:54:25;;;;;;;8.30;5.50;;;;;;;16.16;71.78;101452.59;4934863;29;20090;-82
2022/06/29 00:56:51;;;;;;;8.07;5.23;;;;;;;16.17;71.60;101457.00;4934170;29;20121;-83
2022/06/29 00:59:20;;;;;;;7.97;5.50;;;;;;;16.12;71.88;101446.75;4934346;29;20039;-81
2022/06/29 01:01:45;;;;;;;6.93;5.80;;;;;;;16.08;72.23;101442.81;4933030;29;20078;-82
2022/06/29 01:04:12;;;;;;;7.67;5.80;;;;;;;16.01;72.51;101442.09;4934408;29;20194;-82
2022/06/29 01:06:37;;;;;;;6.97;5.60;;;;;;;16.00;72.23;101435.78;4934390;29;20035;-82
2022/06/29 01:09:04;;;;;;;8.50;6.20;;;;;;;16.00;72.31;101443.97;4934428;29;20039;-81
2022/06/29 01:11:31;;;;;;;7.27;5.90;;;;;;;15.92;72.73;101425.19;4938181;29;20510;-80
2022/06/29 01:13:56;;;;;;;11.90;5.97;;;;;;;15.90;73.28;101434.69;4933658;29;20043;-81
2022/06/29 01:16:22;;;;;;;9.50;6.10;;;;;;;15.86;73.25;101431.59;4934613;29;20068;-80
2022/06/29 01:18:47;;;;;;;7.93;5.70;;;;;;;15.81;73.09;101435.00;4934401;29;20035;-82
2022/06/29 01:21:13;;;;;;;7.83;5.80;;;;;;;15.82;73.21;101436.69;4934235;29;20043;-83
2022/06/29 01:23:39;;;;;;;8.60;6.33;;;;;;;15.82;73.01;101444.06;4924146;29;20067;-81
2022/06/29 01:26:08;;;;;;;9.50;6.60;;;;;;;15.79;73.04;101445.31;4915525;29;20035;-82
2022/06/29 01:28:34;;;;;;;7.77;6.33;;;;;;;15.77;73.19;101441.97;4916760;29;20214;-80
2022/06/29 01:31:02;;;;;;;7.20;6.47;;;;;;;15.72;73.27;101435.53;4933790;29;20476;-80
2022/06/29 01:33:28;;;;;;;10.00;6.37;;;;;;;15.73;73.61;101437.22;4933709;29;20042;-81
2022/06/29 01:35:53;;;;;;;8.80;6.80;;;;;;;15.72;73.54;101430.09;4915088;29;20039;-81
2022/06/29 01:38:19;;;;;;;8.57;6.47;;;;;;;15.67;73.78;101423.41;4937487;29;20055;-81
2022/06/29 01:40:44;;;;;;;10.93;7.00;;;;;;;15.64;73.80;101431.22;4917102;29;20042;-80
2022/06/29 01:43:10;;;;;;;8.20;6.60;;;;;;;15.61;73.85;101427.09;4933482;29;20535;-81
2022/06/29 01:45:35;;;;;;;8.40;6.50;;;;;;;15.54;74.16;101415.41;4934034;29;20043;-80
2022/06/29 01:48:01;;;;;;;7.93;6.40;;;;;;;15.54;74.09;101418.13;4933485;29;20043;-81
2022/06/29 01:50:26;;;;;;;7.87;6.60;;;;;;;15.50;74.10;101419.66;4933251;28;20230;-80
2022/06/29 01:52:52;;;;;;;9.37;6.70;;;;;;;15.52;74.09;101417.56;4932033;29;20569;-81
2022/06/29 01:55:17;;;;;;;8.57;6.53;;;;;;;15.53;74.08;101417.31;4933615;29;20066;-81
2022/06/29 01:57:43;;;;;;;7.47;6.60;;;;;;;15.50;74.36;101422.41;4933285;29;20043;-80
2022/06/29 02:00:09;;;;;;;8.17;7.10;;;;;;;15.45;75.52;101412.19;4933546;29;20039;-81
2022/06/29 02:02:34;;;;;;;8.33;6.63;;;;;;;15.42;74.21;101406.34;4920821;29;20063;-80
2022/06/29 02:04:59;;;;;;;7.70;6.93;;;;;;;15.42;74.98;101404.44;4933368;29;20048;-82
2022/06/29 02:07:25;;;;;;;10.20;7.00;;;;;;;15.43;74.67;101418.94;4933330;29;20050;-80
2022/06/29 02:09:50;;;;;;;14.03;6.97;;;;;;;15.34;74.20;101391.94;4933512;29;20058;-81
2022/06/29 02:12:15;;;;;;;11.07;6.83;;;;;;;15.36;75.05;101403.44;4933078;29;20544;-80
2022/06/29 02:14:41;;;;;;;8.70;7.10;;;;;;;15.34;74.90;101404.78;4933104;29;20718;-80
2022/06/29 02:17:06;;;;;;;11.73;7.50;;;;;;;15.32;74.76;101407.72;4932747;29;20607;-81
2022/06/29 02:19:31;;;;;;;9.03;6.90;;;;;;;15.29;74.66;101402.72;4933090;29;20043;-81
2022/06/29 02:21:57;;;;;;;11.07;7.13;;;;;;;15.31;74.76;101413.41;4932385;29;20790;-79
2022/06/29 02:24:22;;;;;;;9.30;7.00;;;;;;;15.31;74.85;101411.53;4921214;29;20927;-80
2022/06/29 02:26:47;;;;;;;8.70;6.83;;;;;;;15.28;75.17;101409.22;4932923;29;20039;-80
2022/06/29 02:29:13;;;;;;;9.70;7.43;;;;;;;15.30;74.79;101403.53;4932791;29;20892;-80
2022/06/29 02:37:06;;;;;;;9.02;6.95;;;;;;;15.26;75.54;101399.59;4936051;29;20114;-81
2022/06/29 02:39:32;;;;;;;8.10;6.77;;;;;;;15.28;75.59;101400.22;4932758;29;20582;-80
2022/06/29 02:41:57;;;;;;;9.33;6.90;;;;;;;15.22;75.63;101380.13;4932653;29;20167;-80
2022/06/29 02:44:22;;;;;;;9.30;7.40;;;;;;;15.28;76.98;101394.75;4932648;29;20611;-80
2022/06/29 02:46:48;;;;;;;8.87;7.70;;;;;;;15.26;78.30;101395.00;4932383;29;20047;-82
2022/06/29 02:49:13;;;;;;;9.50;7.90;;;;;;;15.27;80.12;101399.41;4932284;29;20047;-80
2022/06/29 02:51:38;;;;;;;10.00;7.00;;;;;;;15.31;76.43;101397.88;4936604;29;21378;-79
2022/06/29 02:54:04;;;;;;;11.17;6.97;;;;;;;15.29;76.63;101402.72;4932304;29;20035;-79
2022/06/29 02:56:29;;;;;;;11.43;7.50;;;;;;;15.33;76.02;101398.47;4936627;29;20058;-81
2022/06/29 02:58:55;;;;;;;10.07;6.90;;;;;;;15.31;75.67;101395.16;4932384;29;20440;-80
2022/06/29 03:01:20;;;;;;;8.83;7.10;;;;;;;15.29;75.43;101397.25;4932225;29;20082;-80
2022/06/29 03:03:45;;;;;;;8.90;7.20;;;;;;;15.31;75.68;101391.56;4935095;28;20059;-80
2022/06/29 03:06:11;;;;;;;9.80;7.20;;;;;;;15.27;75.82;101383.00;4932092;29;20045;-80
2022/06/29 03:08:36;;;;;;;10.87;7.10;;;;;;;15.29;75.87;101383.59;4932291;29;20054;-83
2022/06/29 03:11:02;;;;;;;9.00;7.40;;;;;;;15.26;76.85;101385.94;4935959;29;21324;-80
2022/06/29 03:13:27;;;;;;;9.30;7.20;;;;;;;15.25;76.90;101379.66;4919208;29;20054;-79
2022/06/29 03:15:52;;;;;;;9.37;7.43;;;;;;;15.22;78.88;101377.41;4932718;29;20047;-79
2022/06/29 03:18:18;;;;;;;8.57;7.73;;;;;;;15.12;78.74;101377.97;4931842;29;20043;-80
2022/06/29 03:20:43;;;;;;;8.83;7.93;;;;;;;15.12;80.43;101374.38;4932524;29;20740;-81
2022/06/29 03:23:08;;;;;;;9.93;7.53;;;;;;;15.14;78.19;101372.25;4931496;29;20074;-80
2022/06/29 03:25:34;;;;;;;9.80;7.60;;;;;;;15.13;78.75;101367.88;4931816;29;20182;-80
2022/06/29 03:27:59;;;;;;;10.97;7.63;;;;;;;15.09;80.13;101369.38;4932214;29;20154;-82
2022/06/29 03:30:25;;;;;;;9.73;7.80;;;;;;;15.05;80.70;101369.00;4931822;29;20970;-80
2022/06/29 03:32:50;;;;;;;8.73;7.83;;;;;;;14.98;82.48;101360.88;4919577;29;20047;-80
2022/06/29 03:35:15;;;;;;;9.27;8.00;;;;;;;14.98;81.90;101362.78;4932158;29;20259;-80
2022/06/29 03:37:41;;;;;;;9.30;7.80;;;;;;;14.95;82.80;101364.09;4913606;29;20428;-80
2022/06/29 03:40:07;;;;;;;9.23;7.90;;;;;;;14.94;82.23;101356.94;4935142;29;20054;-79
2022/06/29 03:42:32;;;;;;;9.13;7.90;;;;;;;14.92;81.51;101350.91;4931452;29;20043;-80
2022/06/29 03:44:57;;;;;;;9.10;8.23;;;;;;;14.82;82.16;101343.25;4934797;29;20304;-80
2022/06/29 03:47:23;;;;;;;10.60;8.13;;;;;;;14.77;82.82;101348.56;4912542;29;20086;-80
2022/06/29 03:49:48;;;;;;;9.40;8.17;;;;;;;14.78;80.27;101344.78;4931201;29;20077;-80
2022/06/29 03:52:14;;;;;;;9.73;7.63;;;;;;;14.79;79.75;101354.59;4932019;29;20460;-80
2022/06/29 03:54:39;;;;;;;9.13;7.90;;;;;;;14.76;80.85;101346.06;4931994;29;20362;-80
2022/06/29 03:57:05;;;;;;;9.67;8.37;;;;;;;14.71;80.51;101333.09;4895471;29;20411;-81
2022/06/29 03:59:30;;;;;;;9.37;8.30;;;;;;;14.81;80.61;101346.19;4931459;29;20031;-80
2022/06/29 04:01:55;;;;;;;11.47;8.60;;;;;;;14.66;83.51;101339.25;4930953;29;20039;-80
2022/06/29 04:04:21;;;;;;;10.27;8.60;;;;;;;14.75;82.88;101334.31;4931448;29;20523;-79
2022/06/29 04:06:46;;;;;;;11.80;9.63;;;;;;;14.65;84.49;101331.28;4931513;29;20066;-81
2022/06/29 04:09:11;;;;;;;11.23;9.57;;;;;;;14.75;84.62;101341.66;4914311;29;20399;-80
2022/06/29 04:11:49;;;;;;;11.37;9.57;;;;;;;14.66;85.46;101332.94;4931724;29;20039;-81
2022/06/29 04:14:19;;;;;;;10.70;8.80;;;;;;;14.62;82.79;101329.81;4930907;28;20503;-80
2022/06/29 04:16:45;;;;;;;12.00;9.27;;;;;;;14.67;83.27;101335.47;4931492;29;20183;-79
2022/06/29 04:19:10;;;;;;;11.93;9.17;;;;;;;14.75;83.75;101336.22;4930923;29;20046;-80
2022/06/29 04:21:36;;;;;;;11.03;9.33;;;;;;;14.69;83.56;101338.78;4931763;29;20450;-82
2022/06/29 04:24:01;;;;;;;11.17;9.47;;;;;;;14.72;82.56;101342.94;4931100;29;20087;-80
2022/06/29 04:26:26;;;;;;;10.33;8.50;;;;;;;14.78;81.58;101341.19;4918571;29;20035;-80
2022/06/29 04:28:52;;;;;;;10.50;9.00;;;;;;;14.84;83.06;101335.66;4931618;29;20039;-80
2022/06/29 04:31:17;;;;;;;10.10;9.10;;;;;;;14.81;83.36;101329.81;4924238;29;20051;-79
2022/06/29 04:33:43;;;;;;;9.90;8.53;;;;;;;14.88;82.30;101341.50;4931569;29;20043;-80
2022/06/29 04:36:08;;;;;;;9.90;8.60;;;;;;;14.89;80.57;101326.81;4918238;29;20073;-80
2022/06/29 04:38:34;;;;;;;11.87;9.30;;;;;;;14.99;81.56;101343.47;4916356;29;20122;-80
2022/06/29 04:40:59;;;;;;;11.57;8.90;;;;;;;14.97;81.84;101329.22;4919047;29;20539;-79
2022/06/29 04:43:27;;;;;;;9.87;8.87;;;;;;;15.03;80.76;101336.47;4930984;29;20456;-80
2022/06/29 04:48:37;;;;;;;9.63;8.53;;;;;;;15.11;80.26;101332.63;4931631;29;20135;-82
2022/06/29 04:51:03;;;;;;;9.67;8.63;;;;;;;15.16;80.41;101331.91;4930900;29;20043;-80
2022/06/29 04:53:28;;;;;;;11.77;8.77;;;;;;;15.27;79.61;101341.22;4930971;29;20058;-81
2022/06/29 04:55:53;;;;;;;12.43;9.70;;;;;;;15.33;80.30;101343.03;4930689;29;20071;-81
2022/06/29 04:58:19;;;;;;;12.53;8.70;;;;;;;15.37;79.25;101327.84;4930275;29;20122;-79
2022/06/29 05:00:44;;;;;;;11.13;8.90;;;;;;;15.47;78.78;101333.56;4912593;29;20114;-79
2022/06/29 05:03:09;;;;;;;10.20;9.10;;;;;;;15.55;78.51;101335.16;4929851;29;20083;-79
2022/06/29 05:05:35;;;;;;;12.30;9.10;;;;;;;15.64;78.04;101330.16;4930294;29;20048;-80
2022/06/29 05:08:00;;;;;;;13.63;9.67;;;;;;;15.68;78.64;101328.66;4930814;29;20039;-80
2022/06/29 05:10:25;;;;;;;11.83;10.10;;;;;;;15.78;77.40;101325.34;4930920;29;20489;-80
2022/06/29 05:12:51;;;;;;;11.37;9.73;;;;;;;15.85;77.03;101334.28;4930938;29;20043;-80
2022/06/29 05:15:16;;;;;;;12.30;10.07;;;;;;;15.92;76.39;101331.44;4930709;29;20051;-80
2022/06/29 05:17:42;;;;;;;11.27;10.10;;;;;;;15.97;76.59;101324.22;4919000;29;20633;-80
2022/06/29 05:20:09;;;;;;;12.53;9.80;;;;;;;15.97;76.92;101305.06;4930317;29;20496;-81
2022/06/29 05:22:35;;;;;;;13.27;10.23;;;;;;;16.16;76.37;101319.47;4930949;29;20150;-79
2022/06/29 05:25:02;;;;;;;14.60;9.33;;;;;;;16.25;75.47;101316.38;4930378;29;20169;-80
2022/06/29 05:27:27;;;;;;;12.33;9.77;;;;;;;16.23;76.68;101302.13;4933726;29;20082;-79
2022/06/29 05:29:53;;;;;;;14.30;10.17;;;;;;;16.42;77.10;101319.22;4921074;29;20040;-79
2022/06/29 05:32:18;;;;;;;15.93;10.00;;;;;;;16.48;75.96;101319.09;4921867;29;20048;-80
2022/06/29 05:34:43;;;;;;;11.23;9.57;;;;;;;16.56;76.61;101317.88;4933779;29;20066;-81
2022/06/29 05:37:09;;;;;;;12.77;9.67;;;;;;;16.66;76.25;101317.28;4934039;29;20508;-80
2022/06/29 05:39:34;;;;;;;15.33;9.60;;;;;;;16.70;75.71;101307.53;4921347;29;20361;-79
2022/06/29 05:41:59;;;;;;;13.23;10.10;;;;;;;16.82;75.94;101305.59;4933690;29;20046;-79
2022/06/29 05:44:25;;;;;;;12.00;10.27;;;;;;;16.95;75.99;101314.63;4934273;29;20469;-79
2022/06/29 05:46:51;;;;;;;13.87;9.80;;;;;;;16.98;75.19;101304.00;4934460;29;20400;-81
2022/06/29 05:49:16;;;;;;;11.67;9.20;;;;;;;17.06;75.04;101305.53;4933624;29;20564;-81
2022/06/29 05:51:41;;;;;;;14.67;9.30;;;;;;;17.19;74.66;101315.38;4934205;29;20634;-81
2022/06/29 05:54:07;;;;;;;13.77;9.27;;;;;;;17.32;73.80;101314.22;4933713;29;20044;-81
2022/06/29 05:56:32;;;;;;;12.07;8.87;;;;;;;17.38;73.42;101308.59;4933138;29;20098;-81
2022/06/29 05:58:58;;;;;;;13.13;8.87;;;;;;;17.51;73.79;101306.63;4933468;29;20062;-80
2022/06/29 06:01:23;;;;;;;11.27;8.30;;;;;;;17.59;71.62;101310.88;4933613;29;20492;-82
2022/06/29 06:03:48;;;;;;;11.87;8.33;;;;;;;17.67;70.72;101307.72;4933632;29;20475;-83
2022/06/29 06:06:14;;;;;;;13.57;7.93;;;;;;;17.77;70.80;101307.88;4933678;29;20122;-82
2022/06/29 06:08:39;;;;;;;10.87;7.73;;;;;;;17.81;69.79;101308.22;4933941;29;20123;-83
2022/06/29 06:11:04;;;;;;;10.00;8.07;;;;;;;17.96;70.03;101318.63;4932912;29;20493;-81
2022/06/29 06:13:30;;;;;;;15.60;8.53;;;;;;;18.06;70.97;101313.31;4933608;29;20167;-82
2022/06/29 06:15:55;;;;;;;10.40;7.73;;;;;;;18.18;69.47;101313.22;4932951;29;20714;-82
2022/06/29 06:18:21;;;;;;;8.93;7.80;;;;;;;18.28;67.80;101312.50;4933639;29;20049;-82
2022/06/29 06:20:46;;;;;;;10.07;7.87;;;;;;;18.34;68.27;101308.78;4933137;29;20043;-82
2022/06/29 06:23:12;;;;;;;13.13;8.00;;;;;;;18.46;69.98;101305.94;4933342;29;20126;-80
2022/06/29 06:25:37;;;;;;;11.83;8.10;;;;;;;18.56;68.52;101306.06;4932473;29;20426;-82
2022/06/29 06:28:05;;;;;;;12.77;7.90;;;;;;;18.66;66.79;101311.69;4933573;29;20039;-81
2022/06/29 06:30:31;;;;;;;10.23;8.33;;;;;;;18.72;68.09;101293.38;4932817;29;20196;-80
2022/06/29 06:32:56;;;;;;;11.23;8.23;;;;;;;18.91;66.55;101313.13;4933123;29;20770;-82
2022/06/29 06:35:22;;;;;;;12.03;7.97;;;;;;;18.98;65.76;101311.00;4932458;29;20043;-82
2022/06/29 06:37:48;;;;;;;9.77;8.20;;;;;;;19.05;65.49;101319.88;4932562;28;20102;-80
2022/06/29 06:42:58;;;;;;;10.73;7.90;;;;;;;19.32;66.61;101310.81;4933074;29;20061;-81
2022/06/29 06:45:24;;;;;;;11.57;8.77;;;;;;;19.43;67.22;101305.41;4933118;29;20043;-80
2022/06/29 06:47:50;;;;;;;11.52;8.43;;;;;;;19.55;66.61;101306.09;4930807;29;20043;-80
2022/06/29 06:50:15;;;;;;;11.50;8.50;;;;;;;19.61;65.15;101310.56;4933091;29;20047;-79
2022/06/29 06:52:41;;;;;;;10.30;8.50;;;;;;;19.74;66.07;101309.28;4936784;29;20050;-80
2022/06/29 06:55:07;;;;;;;10.53;8.40;;;;;;;19.80;64.15;101313.75;4936801;29;20517;-80
2022/06/29 06:57:32;;;;;;;11.77;7.93;;;;;;;19.89;65.04;101308.59;4932756;29;20043;-80
2022/06/29 06:59:58;;;;;;;8.55;7.68;;;;;;;19.94;65.32;101307.78;4932371;29;20054;-80
2022/06/29 07:02:23;;;;;;;13.02;7.40;;;;;;;19.94;62.97;101305.88;4932296;29;20521;-80
2022/06/29 07:04:49;;;;;;;9.32;8.30;;;;;;;19.81;62.81;101300.84;4932432;29;20036;-82
2022/06/29 07:07:14;;;;;;;11.07;7.97;;;;;;;19.88;62.73;101309.69;4932823;29;20050;-81
2022/06/29 07:09:40;;;;;;;13.57;8.30;;;;;;;19.93;61.96;101317.97;4931020;28;20035;-82
2022/06/29 07:12:06;;;;;;;11.13;8.23;;;;;;;19.86;62.71;101317.38;4932474;29;20067;-82
2022/06/29 07:14:31;;;;;;;10.63;8.50;;;;;;;19.87;63.66;101322.63;4914920;29;20107;-81
2022/06/29 07:16:57;;;;;;;11.07;8.82;;;;;;;19.83;63.19;101317.91;4931928;29;20119;-83
2022/06/29 07:19:22;;;;;;;12.83;9.70;;;;;;;19.84;63.18;101314.06;4932125;29;20075;-82
2022/06/29 07:21:48;;;;;;;13.10;9.70;;;;;;;19.98;65.39;101309.78;4932187;29;20046;-83
2022/06/29 07:24:13;;;;;;;13.07;9.63;;;;;;;20.08;63.70;101311.75;4932562;29;20119;-82
2022/06/29 07:26:38;;;;;;;12.95;10.25;;;;;;;20.09;62.84;101313.41;4931913;29;20090;-83
2022/06/29 07:29:04;;;;;;;14.13;10.30;;;;;;;20.18;63.88;101313.75;4931909;29;20551;-82
2022/06/29 07:31:29;;;;;;;14.70;10.27;;;;;;;20.27;61.75;101314.91;4919210;29;20102;-85
2022/06/29 07:33:54;;;;;;;15.57;10.18;;;;;;;20.36;62.09;101305.06;4932454;29;20027;-82
2022/06/29 07:36:20;;;;;;;13.88;10.38;;;;;;;20.45;62.37;101313.63;4931866;29;20408;-81
2022/06/29 07:38:45;;;;;;;15.48;9.82;;;;;;;20.53;61.30;101309.53;4931999;29;20048;-81
2022/06/29 07:41:11;;;;;;;13.13;9.13;;;;;;;20.55;59.98;101307.38;4911231;29;20039;-82
2022/06/29 07:43:37;;;;;;;13.05;8.43;;;;;;;20.60;59.09;101314.81;4919529;29;20047;-83
2022/06/29 07:46:02;;;;;;;11.23;8.60;;;;;;;20.65;59.86;101304.66;4931597;29;20046;-81
2022/06/29 07:48:28;;;;;;;13.85;8.15;;;;;;;20.70;59.43;101301.94;4932321;28;20248;-82
2022/06/29 07:50:53;;;;;;;11.93;8.35;;;;;;;20.84;60.16;101299.53;4931325;29;20045;-81
2022/06/29 07:53:19;;;;;;;13.88;8.60;;;;;;;20.95;60.49;101296.81;4931562;29;20126;-81
2022/06/29 07:55:45;;;;;;;13.30;8.77;;;;;;;21.11;59.85;101300.44;4931760;29;20035;-82
2022/06/29 07:58:14;;;;;;;10.68;8.68;;;;;;;21.24;60.92;101294.38;4930856;29;20031;-83
2022/06/29 08:00:41;;;;;;;11.55;8.82;;;;;;;21.46;62.27;101301.59;4931080;29;20086;-81
2022/06/29 08:03:07;;;;;;;10.85;8.55;;;;;;;21.48;57.89;101282.84;4931908;29;20060;-80
2022/06/29 08:05:33;;;;;;;12.32;8.90;;;;;;;21.73;59.56;101298.59;4934897;29;20031;-83
2022/06/29 08:07:58;;;;;;;11.70;8.95;;;;;;;21.77;56.21;101298.88;4930657;29;20169;-81
2022/06/29 08:10:24;;;;;;;14.30;8.98;;;;;;;21.88;57.94;101295.00;4931267;29;20078;-81
2022/06/29 08:12:50;;;;;;;12.98;8.48;;;;;;;21.94;55.90;101287.56;4934779;29;20039;-82
2022/06/29 08:15:17;;;;;;;12.35;7.88;;;;;;;22.08;56.24;101294.97;4931559;29;20049;-80
2022/06/29 08:17:43;;;;;;;12.10;8.73;;;;;;;22.15;55.26;101293.88;4931745;29;20071;-81
2022/06/29 08:20:09;;;;;;;10.32;7.72;;;;;;;22.37;56.04;101286.13;4931143;29;20122;-81
2022/06/29 08:22:34;;;;;;;8.90;7.57;;;;;;;22.50;55.42;101292.16;4930948;29;20125;-81
2022/06/29 08:25:00;;;;;;;9.52;7.05;;;;;;;22.63;53.90;101294.31;4931263;29;20039;-81
2022/06/29 08:27:25;;;;;;;9.27;7.80;;;;;;;22.93;54.32;101292.50;4931664;29;20109;-82
2022/06/29 08:29:51;;;;;;;11.80;7.70;;;;;;;23.04;53.71;101294.09;4931619;29;20081;-81
2022/06/29 08:32:16;;;;;;;9.25;7.88;;;;;;;23.31;52.69;101290.09;4935048;29;20051;-81
2022/06/29 08:34:42;;;;;;;9.85;6.93;;;;;;;23.50;52.80;101300.44;4930776;29;20051;-82
2022/06/29 08:37:07;;;;;;;7.57;5.78;;;;;;;23.51;49.64;101283.56;4931445;29;20043;-82
2022/06/29 08:39:33;;;;;;;9.15;6.18;;;;;;;23.54;50.61;101291.31;4931220;29;20049;-82
2022/06/29 08:42:04;;;;;;;7.68;5.07;;;;;;;23.78;49.31;101290.53;4931082;29;20039;-81
2022/06/29 08:44:33;;;;;;;9.00;5.63;;;;;;;24.16;51.37;101289.94;4931267;29;20512;-81
2022/06/29 08:47:04;;;;;;;7.25;4.30;;;;;;;24.41;48.29;101286.88;4894632;29;20039;-81
2022/06/29 08:49:33;;;;;;;4.70;3.47;;;;;;;24.50;45.86;101286.22;4931337;29;20043;-83
2022/06/29 08:52:03;;;;;;;6.30;3.42;;;;;;;24.63;45.75;101285.56;4931128;29;20414;-81
2022/06/29 08:54:28;;;;;;;6.70;3.20;;;;;;;24.87;45.67;101281.91;4919310;29;20035;-84
2022/06/29 08:56:56;;;;;;;5.18;3.10;;;;;;;25.21;44.07;101284.44;4930471;29;20051;-83
2022/06/29 08:59:24;;;;;;;4.68;2.72;;;;;;;25.45;42.45;101281.63;4931758;29;20044;-83
2022/06/29 09:01:50;;;;;;;4.57;2.80;;;;;;;25.82;45.37;101286.56;4945107;28;20037;-82
2022/06/29 09:04:17;;;;;;;5.00;2.85;;;;;;;26.20;43.87;101278.94;4950597;29;20099;-81
2022/06/29 09:06:44;;;;;;;6.45;3.13;;;;;;;26.25;40.84;101284.41;4944747;29;20032;-81
2022/06/29 09:09:09;;;;;;;4.40;2.80;;;;;;;26.85;43.40;101276.25;4932095;29;20122;-80
2022/06/29 09:11:41;;;;;;;4.00;2.67;;;;;;;27.14;42.79;101284.19;4950834;29;20082;-82
2022/06/29 09:14:13;;;;;;;5.15;2.83;;;;;;;27.41;40.06;101280.53;4953050;29;20031;-82
2022/06/29 09:17:03;;;;;;;3.90;2.90;;;;;;;27.85;39.74;101280.78;4927175;29;20019;-82
2022/06/29 09:19:34;;;;;;;5.07;2.70;;;;;;;27.52;39.10;101271.94;4938209;29;20036;-82
2022/06/29 09:22:00;;;;;;;3.17;2.70;;;;;;;27.26;39.50;101278.09;4951557;29;20026;-83
2022/06/29 09:24:28;;;;;;;6.28;2.70;;;;;;;27.12;38.69;101281.75;4944407;29;20039;-81
2022/06/29 09:26:56;;;;;;;4.72;2.50;;;;;;;27.12;39.93;101276.19;4941460;29;20031;-82
2022/06/29 09:29:30;;;;;;;3.60;2.45;;;;;;;26.54;38.98;101274.09;4924711;29;20023;-82
2022/06/29 09:32:01;;;;;;;3.90;2.50;;;;;;;26.42;39.48;101286.56;4958083;29;20098;-81
2022/06/29 09:34:28;;;;;;;3.47;2.00;;;;;;;26.49;38.98;101277.00;4952171;29;20023;-82
2022/06/29 09:36:55;;;;;;;2.72;2.20;;;;;;;26.76;38.84;101276.16;4951044;29;20027;-82
2022/06/29 09:39:34;;;;;;;3.03;2.10;;;;;;;27.00;38.04;101273.13;4959117;29;20102;-82
2022/06/29 09:42:00;;;;;;;4.70;2.20;;;;;;;27.04;36.87;101274.13;4937154;29;20039;-81
2022/06/29 09:44:25;;;;;;;4.43;2.00;;;;;;;27.15;37.41;101274.72;4944315;29;20375;-82
2022/06/29 09:46:56;;;;;;;4.10;2.15;;;;;;;27.25;38.26;101276.44;4934628;29;20024;-82
2022/06/29 09:49:25;;;;;;;3.83;1.80;;;;;;;27.34;35.99;101282.09;4940244;29;20035;-82
2022/06/29 09:51:56;;;;;;;4.20;2.15;;;;;;;27.52;37.17;101277.50;4951913;29;20077;-84
2022/06/29 09:54:24;;;;;;;4.43;2.00;;;;;;;27.39;36.55;101271.69;4927656;29;20380;-82
2022/06/29 09:56:50;;;;;;;2.75;1.70;;;;;;;27.59;35.33;101278.69;4921844;29;20044;-81
2022/06/29 10:02:34;;;;;;;3.55;1.92;;;;;;;27.68;35.11;101280.72;4938930;29;20102;-81
2022/06/29 10:05:05;;;;;;;3.70;1.90;;;;;;;27.57;37.07;101272.63;4942699;29;20456;-82
2022/06/29 10:07:33;;;;;;;4.60;1.95;;;;;;;27.63;34.46;101274.16;4939505;29;20023;-82
2022/06/29 10:09:59;;;;;;;3.15;1.80;;;;;;;27.70;35.19;101272.84;4948565;29;20033;-82
2022/06/29 10:15:45;;;;;;;3.28;2.15;;;;;;;28.10;36.84;101265.41;4938953;29;20391;-82
2022/06/29 10:18:19;;;;;;;5.43;2.42;;;;;;;28.30;38.48;101268.75;4954090;29;20031;-82
2022/06/29 10:20:47;;;;;;;5.72;2.90;;;;;;;28.16;37.01;101262.47;4956048;29;20359;-81
2022/06/29 10:23:49;;;;;;;4.78;2.70;;;;;;;28.48;38.09;101266.84;4921908;29;20027;-82
2022/06/29 10:26:36;;;;;;;4.30;2.67;;;;;;;28.53;38.23;101263.91;4935758;29;20558;-83
2022/06/29 10:29:10;;;;;;;4.13;3.15;;;;;;;28.56;37.57;101262.41;4938390;29;20028;-82
2022/06/29 10:31:54;;;;;;;5.32;3.30;;;;;;;28.53;36.08;101247.19;4950995;29;20090;-81
2022/06/29 10:34:28;;;;;;;;;;;;;;;28.80;37.95;101260.06;4953299;29;20019;-81
2022/06/29 10:37:05;;;;;;;8.57;4.35;;;;;;;28.32;39.23;101254.50;4956639;29;19914;-82
2022/06/29 10:39:46;;;;;;;5.70;3.40;;;;;;;28.26;38.24;101251.03;4951512;29;20520;-81
2022/06/29 10:45:16;;;;;;;6.38;3.20;;;;;;;28.24;37.26;101247.75;4956048;29;20087;-82
2022/06/29 10:48:07;;;;;;;2.67;2.20;;;;;;;28.04;37.94;101244.41;4949465;29;20440;-81
2022/06/29 10:50:34;;;;;;;7.07;2.65;;;;;;;27.82;36.96;101245.25;4949797;29;20532;-81
2022/06/29 10:53:04;;;;;;;3.33;2.00;;;;;;;27.67;36.57;101240.91;4947271;29;20050;-81
2022/06/29 10:55:31;;;;;;;4.78;2.13;;;;;;;27.59;36.33;101238.91;4948544;29;20035;-84
2022/06/29 10:57:58;;;;;;;4.10;2.20;;;;;;;27.56;35.99;101237.56;4955924;29;20428;-81
2022/06/29 11:00:24;;;;;;;4.53;2.17;;;;;;;27.92;35.61;101230.22;4956624;29;20078;-82
2022/06/29 11:02:50;;;;;;;5.18;1.95;;;;;;;28.19;40.60;101231.19;4945110;29;20488;-81
2022/06/29 11:05:15;;;;;;;3.55;1.90;;;;;;;28.13;34.57;101222.16;4956639;29;20047;-81
2022/06/29 11:13:28;;;;;;;4.43;2.00;;;;;;;28.63;35.07;101221.81;4940803;29;20046;-82
2022/06/29 11:15:56;;;;;;;3.05;1.83;;;;;;;28.74;38.53;101216.75;4937469;29;20035;-82
2022/06/29 11:18:32;;;;;;;3.03;1.92;;;;;;;28.93;37.45;101221.19;4941587;29;20045;-82
2022/06/29 11:21:02;;;;;;;5.68;2.55;;;;;;;28.68;36.03;101211.66;4955731;29;20027;-81
2022/06/29 11:23:29;;;;;;;4.13;2.50;;;;;;;28.86;35.51;101216.09;4954599;28;20035;-81
2022/06/29 11:25:56;;;;;;;5.88;2.50;;;;;;;29.08;37.90;101211.50;4953975;29;20113;-81
2022/06/29 11:28:27;;;;;;;5.53;2.60;;;;;;;29.04;36.14;101214.13;4956818;29;20066;-82
2022/06/29 11:31:04;;;;;;;2.53;2.10;;;;;;;29.18;36.66;101213.94;4945169;29;20139;-81
2022/06/29 11:33:43;;;;;;;3.35;2.22;;;;;;;29.29;37.55;101198.53;4949638;29;20472;-82
2022/06/29 11:36:17;;;;;;;3.55;2.10;;;;;;;28.86;35.08;101215.25;4937580;29;20589;-82
2022/06/29 11:38:47;;;;;;;6.15;2.30;;;;;;;28.90;34.76;101207.88;4955277;29;20419;-82
2022/06/29 11:43:03;;;;;;;3.72;1.90;;;;;;;29.03;36.29;101203.31;4935520;29;20119;-80
2022/06/29 11:44:21;;;;;;;5.18;2.10;;;;;;;29.20;36.56;101199.66;4954125;29;20042;-81
2022/06/29 11:46:46;;;;;;;3.35;2.40;;;;;;;28.94;33.98;101186.56;4940191;29;20479;-81